createdAt,value
2019-02-14T00:00:43.201Z,24.73
2019-02-14T00:03:12.888Z,19.53
2019-02-14T00:05:42.625Z,30.27
2019-02-14T00:08:12.275Z,15.60
2019-02-14T00:10:41.973Z,21.57
2019-02-14T00:13:11.668Z,29.83
2019-02-14T00:15:41.370Z,16.30
2019-02-14T00:18:11.026Z,27.90
2019-02-14T00:20:40.809Z,23.63
2019-02-14T00:23:10.519Z,23.37
2019-02-14T00:25:40.149Z,17.57
2019-02-14T00:28:09.915Z,21.23
2019-02-14T00:30:39.594Z,23.47
2019-02-14T00:33:09.393Z,16.40
2019-02-14T00:35:39.146Z,23.10
2019-02-14T00:38:08.916Z,22.73
2019-02-14T00:40:38.765Z,18.93
2019-02-14T00:43:08.384Z,24.50
2019-02-14T00:45:38.185Z,25.83
2019-02-14T00:48:07.890Z,19.07
2019-02-14T00:50:37.615Z,18.47
2019-02-14T00:53:07.395Z,22.87
2019-02-14T00:55:37.159Z,20.13
2019-02-14T00:58:06.847Z,20.17
2019-02-14T01:00:36.556Z,23.50
2019-02-14T01:03:06.786Z,19.50
2019-02-14T01:05:36.489Z,16.47
2019-02-14T01:08:06.376Z,17.47
2019-02-14T01:10:36.106Z,24.70
2019-02-14T01:13:06.054Z,19.17
2019-02-14T01:15:36.738Z,23.07
2019-02-14T01:18:06.640Z,18.30
2019-02-14T01:20:36.298Z,17.47
2019-02-14T01:23:06.118Z,18.83
2019-02-14T01:25:35.827Z,24.60
2019-02-14T01:28:05.840Z,17.43
2019-02-14T01:30:35.559Z,19.03
2019-02-14T01:33:05.233Z,20.07
2019-02-14T01:35:41.827Z,20.93
2019-02-14T01:38:06.477Z,12.10
2019-02-14T01:40:37.465Z,20.90
2019-02-14T01:43:07.159Z,19.47
2019-02-14T01:45:37.236Z,16.77
2019-02-14T01:48:07.118Z,17.20
2019-02-14T01:50:36.893Z,15.60
2019-02-14T01:53:06.830Z,14.87
2019-02-14T01:55:36.483Z,20.60
2019-02-14T01:58:06.553Z,19.20
2019-02-14T02:00:36.627Z,17.90
2019-02-14T02:03:06.519Z,16.43
2019-02-14T02:05:36.246Z,19.10
2019-02-14T02:08:06.005Z,14.33
2019-02-14T02:10:35.847Z,15.57
2019-02-14T02:13:05.640Z,18.00
2019-02-14T02:15:35.551Z,16.33
2019-02-14T02:18:05.895Z,16.33
2019-02-14T02:20:35.578Z,19.40
2019-02-14T02:23:05.237Z,19.73
2019-02-14T02:25:34.982Z,20.43
2019-02-14T02:28:04.917Z,18.70
2019-02-14T02:30:34.579Z,22.37
2019-02-14T02:33:04.324Z,13.17
2019-02-14T02:35:34.153Z,16.93
2019-02-14T02:38:03.884Z,15.97
2019-02-14T02:40:33.624Z,14.33
2019-02-14T02:43:03.400Z,13.17
2019-02-14T02:45:33.143Z,13.00
2019-02-14T02:48:02.921Z,17.37
2019-02-14T02:50:32.739Z,12.10
2019-02-14T02:53:02.461Z,12.97
2019-02-14T02:55:32.281Z,11.70
2019-02-14T02:58:02.037Z,13.80
2019-02-14T03:00:31.731Z,13.07
2019-02-14T03:03:01.500Z,15.90
2019-02-14T03:05:31.173Z,15.27
2019-02-14T03:08:00.881Z,14.00
2019-02-14T03:10:30.693Z,12.93
2019-02-14T03:13:00.482Z,13.40
2019-02-14T03:15:30.237Z,12.07
2019-02-14T03:17:59.968Z,15.20
2019-02-14T03:20:31.819Z,16.43
2019-02-14T03:23:01.533Z,14.37
2019-02-14T03:25:31.245Z,11.43
2019-02-14T03:28:00.943Z,19.77
2019-02-14T03:30:30.787Z,10.53
2019-02-14T03:33:00.501Z,19.07
2019-02-14T03:35:30.183Z,18.60
2019-02-14T03:37:59.968Z,16.40
2019-02-14T03:40:30.719Z,16.80
2019-02-14T03:43:00.470Z,15.63
2019-02-14T03:45:30.143Z,13.37
2019-02-14T03:47:59.919Z,15.63
2019-02-14T03:50:29.605Z,16.33
2019-02-14T03:52:59.472Z,15.40
2019-02-14T03:55:29.159Z,14.33
2019-02-14T03:57:59.069Z,14.87
2019-02-14T04:00:28.853Z,16.00
2019-02-14T04:02:58.510Z,19.40
2019-02-14T04:05:28.273Z,14.00
2019-02-14T04:07:58.010Z,13.10
2019-02-14T04:10:27.887Z,15.23
2019-02-14T04:12:57.646Z,17.97
2019-02-14T04:15:27.556Z,17.33
2019-02-14T04:17:57.239Z,25.30
2019-02-14T04:20:26.943Z,17.90
2019-02-14T04:22:56.986Z,15.80
2019-02-14T04:25:26.677Z,22.37
2019-02-14T04:27:56.548Z,21.77
2019-02-14T04:30:26.329Z,17.47
2019-02-14T04:32:55.992Z,14.00
2019-02-14T04:35:25.672Z,12.00
2019-02-14T04:37:55.354Z,16.23
2019-02-14T04:40:33.257Z,18.37
2019-02-14T04:42:56.515Z,19.93
2019-02-14T04:45:26.310Z,22.43
2019-02-14T04:47:56.254Z,19.03
2019-02-14T04:50:25.955Z,18.07
2019-02-14T04:52:55.642Z,17.27
2019-02-14T04:55:25.332Z,15.07
2019-02-14T04:57:55.215Z,16.50
2019-02-14T05:00:24.978Z,16.03
2019-02-14T05:02:54.794Z,12.87
2019-02-14T05:05:24.590Z,15.70
2019-02-14T05:07:54.267Z,10.60
2019-02-14T05:10:23.990Z,14.20
2019-02-14T05:12:53.672Z,15.63
2019-02-14T05:15:23.445Z,15.17
2019-02-14T05:17:53.120Z,9.67
2019-02-14T05:20:22.799Z,16.57
2019-02-14T05:22:52.640Z,12.93
2019-02-14T05:25:22.276Z,14.20
2019-02-14T05:27:52.031Z,11.63
2019-02-14T05:30:21.718Z,14.07
2019-02-14T05:32:51.424Z,15.33
2019-02-14T05:35:21.075Z,13.50
2019-02-14T05:37:50.756Z,11.27
2019-02-14T05:40:20.493Z,18.10
2019-02-14T05:42:50.163Z,13.57
2019-02-14T05:45:19.876Z,13.23
2019-02-14T05:47:49.992Z,12.83
2019-02-14T05:50:20.268Z,17.90
2019-02-14T05:52:50.110Z,17.50
2019-02-14T05:55:19.786Z,10.60
2019-02-14T05:57:49.730Z,19.23
2019-02-14T06:00:20.149Z,18.30
2019-02-14T06:02:49.866Z,16.07
2019-02-14T06:05:19.566Z,12.87
2019-02-14T06:07:49.241Z,20.13
2019-02-14T06:10:19.064Z,16.13
2019-02-14T06:12:48.763Z,15.30
2019-02-14T06:15:18.709Z,16.80
2019-02-14T06:17:48.434Z,15.27
2019-02-14T06:20:18.145Z,15.30
2019-02-14T06:22:47.936Z,14.53
2019-02-14T06:25:17.670Z,16.40
2019-02-14T06:27:47.425Z,13.97
2019-02-14T06:30:17.526Z,16.47
2019-02-14T06:32:47.193Z,15.63
2019-02-14T06:35:16.917Z,13.57
2019-02-14T06:37:46.688Z,19.23
2019-02-14T06:40:16.397Z,15.03
2019-02-14T06:42:46.146Z,13.40
2019-02-14T06:45:15.930Z,13.70
2019-02-14T06:47:45.710Z,15.17
2019-02-14T06:50:15.411Z,15.23
2019-02-14T06:52:45.204Z,14.73
2019-02-14T06:55:15.245Z,13.50
2019-02-14T06:57:44.963Z,13.40
2019-02-14T07:00:15.826Z,15.37
2019-02-14T07:02:45.528Z,14.60
2019-02-14T07:05:15.287Z,13.17
2019-02-14T07:07:44.977Z,16.87
2019-02-14T07:10:14.691Z,16.03
2019-02-14T07:12:44.403Z,18.67
2019-02-14T07:15:14.613Z,15.60
2019-02-14T07:17:44.419Z,17.57
2019-02-14T07:20:14.643Z,16.87
2019-02-14T07:22:44.407Z,17.37
2019-02-14T07:25:14.121Z,24.13
2019-02-14T07:27:43.819Z,22.37
2019-02-14T07:30:15.854Z,21.50
2019-02-14T07:32:47.340Z,22.50
2019-02-14T07:35:17.028Z,15.87
2019-02-14T07:37:46.719Z,21.93
2019-02-14T07:40:16.638Z,24.37
2019-02-14T07:42:46.391Z,24.47
2019-02-14T07:45:16.196Z,26.20
2019-02-14T07:47:45.938Z,25.67
2019-02-14T07:50:15.733Z,24.07
2019-02-14T07:52:45.458Z,25.57
2019-02-14T07:55:15.224Z,27.23
2019-02-14T07:57:45.040Z,27.17
2019-02-14T08:00:14.928Z,25.43
2019-02-14T08:02:44.623Z,24.03
2019-02-14T08:05:14.312Z,25.87
2019-02-14T08:07:44.103Z,26.90
2019-02-14T08:10:14.789Z,22.67
2019-02-14T08:12:44.518Z,23.53
2019-02-14T08:15:14.679Z,23.07
2019-02-14T08:17:44.417Z,23.33
2019-02-14T08:20:15.209Z,19.90
2019-02-14T08:22:44.977Z,19.43
2019-02-14T08:25:14.756Z,21.30
2019-02-14T08:27:44.498Z,18.53
2019-02-14T08:30:15.333Z,16.50
2019-02-14T08:32:45.083Z,12.67
2019-02-14T08:35:14.862Z,17.07
2019-02-14T08:37:46.490Z,18.53
2019-02-14T08:40:20.662Z,21.17
2019-02-14T09:02:41.978Z,18.30
2019-02-14T09:32:57.645Z,10.47
2019-02-14T09:35:57.201Z,14.40
2019-02-14T09:41:28.750Z,12.13
2019-02-14T09:44:00.111Z,12.50
2019-02-14T09:46:34.566Z,16.73
2019-02-14T09:49:28.824Z,16.47
2019-02-14T09:56:10.145Z,7.43
2019-02-14T09:59:50.277Z,4.13
2019-02-14T10:13:43.420Z,9.20
2019-02-14T10:16:15.600Z,12.43
2019-02-14T10:18:50.021Z,14.40
2019-02-14T10:24:21.557Z,9.27
2019-02-14T10:26:51.550Z,32.03
2019-02-14T10:29:21.485Z,13.83
2019-02-14T10:31:52.660Z,16.77
2019-02-14T10:34:23.012Z,10.33
2019-02-14T10:36:53.185Z,13.43
2019-02-14T10:39:23.163Z,6.77
2019-02-14T10:41:53.228Z,4.17
2019-02-14T10:44:25.699Z,5.00
2019-02-14T10:46:56.803Z,8.20
2019-02-14T10:49:26.726Z,6.67
2019-02-14T10:51:56.624Z,7.67
2019-02-14T10:54:26.523Z,10.87
2019-02-14T10:56:56.421Z,10.43
2019-02-14T10:59:26.371Z,9.13
2019-02-14T11:01:56.379Z,10.03
2019-02-14T11:04:26.176Z,9.37
2019-02-14T11:07:00.095Z,11.47
2019-02-14T11:09:30.042Z,12.50
2019-02-14T11:12:01.699Z,7.63
2019-02-14T11:14:34.805Z,8.73
2019-02-14T11:17:11.446Z,9.03
2019-02-14T11:19:42.929Z,9.90
2019-02-14T11:22:14.635Z,10.40
2019-02-14T11:24:44.745Z,13.37
2019-02-14T11:27:18.183Z,11.80
2019-02-14T11:29:51.646Z,10.77
2019-02-14T11:32:24.564Z,10.97
2019-02-14T11:35:02.237Z,7.87
2019-02-14T11:37:34.132Z,9.23
2019-02-14T11:40:04.098Z,9.00
2019-02-14T11:42:37.134Z,14.27
2019-02-14T11:45:11.549Z,12.10
2019-02-14T11:47:46.270Z,9.60
2019-02-14T11:50:16.704Z,14.87
2019-02-14T11:52:47.409Z,7.80
2019-02-14T11:55:17.348Z,12.87
2019-02-14T11:57:47.386Z,12.90
2019-02-14T12:00:21.170Z,9.30
2019-02-14T12:02:55.450Z,9.63
2019-02-14T12:05:22.991Z,13.50
2019-02-14T12:07:55.448Z,7.83
2019-02-14T12:10:25.172Z,8.30
2019-02-14T12:12:55.008Z,6.83
2019-02-14T12:15:25.120Z,8.30
2019-02-14T12:17:55.240Z,9.63
2019-02-14T12:20:30.627Z,14.10
2019-02-14T12:27:06.944Z,7.23
2019-02-14T12:29:57.850Z,15.97
2019-02-14T12:37:48.184Z,13.17
2019-02-14T12:44:06.431Z,15.60
2019-02-14T12:51:07.935Z,13.03
2019-02-14T12:57:26.815Z,12.43
2019-02-14T12:59:48.088Z,11.13
2019-02-14T14:50:43.935Z,23.43
2019-02-14T14:53:21.088Z,25.37
2019-02-14T14:55:52.532Z,26.87
2019-02-14T14:58:24.249Z,38.43
2019-02-14T15:04:06.996Z,29.87
2019-02-14T15:06:44.734Z,24.63
2019-02-14T15:09:17.889Z,25.70
2019-02-14T15:11:47.992Z,25.20
2019-02-14T15:14:19.296Z,20.17
2019-02-14T15:16:49.404Z,22.53
2019-02-14T15:19:23.312Z,17.17
2019-02-14T15:21:56.205Z,21.27
2019-02-14T15:24:26.492Z,19.87
2019-02-14T15:27:00.747Z,22.70
2019-02-14T15:30:04.460Z,16.87
2019-02-14T15:32:11.826Z,19.07
2019-02-14T15:35:09.155Z,23.63
2019-02-14T15:37:41.814Z,21.13
2019-02-14T15:40:13.792Z,23.03
2019-02-14T15:42:44.268Z,28.13
2019-02-14T15:45:17.523Z,24.50
2019-02-14T15:47:47.220Z,23.97
2019-02-14T15:50:17.452Z,22.87
2019-02-14T15:52:47.345Z,21.30
2019-02-14T15:55:19.522Z,24.10
2019-02-14T15:57:50.510Z,21.93
2019-02-14T16:00:25.432Z,23.37
2019-02-14T16:03:24.897Z,21.20
2019-02-14T16:05:56.604Z,23.13
2019-02-14T16:08:31.284Z,21.30
2019-02-14T16:11:01.314Z,22.83
2019-02-14T16:13:33.899Z,25.07
2019-02-14T16:16:04.540Z,26.07
2019-02-14T16:18:41.847Z,23.73
2019-02-14T16:21:12.015Z,21.03
2019-02-14T16:23:42.255Z,24.80
2019-02-14T16:26:13.032Z,23.30
2019-02-14T16:28:44.068Z,24.57
2019-02-14T16:31:14.907Z,25.70
2019-02-14T16:33:45.862Z,26.77
2019-02-14T16:36:22.729Z,29.50
2019-02-14T16:38:52.801Z,27.13
2019-02-14T16:41:22.629Z,32.30
2019-02-14T16:43:52.593Z,26.10
2019-02-14T16:46:53.177Z,28.77
2019-02-14T16:49:38.304Z,34.30
2019-02-14T16:52:31.133Z,35.97
2019-02-14T16:56:32.145Z,41.27
2019-02-14T16:58:30.340Z,34.43
2019-02-14T17:04:23.635Z,47.60
2019-02-14T17:12:08.231Z,44.37
2019-02-14T17:13:17.743Z,43.73
2019-02-14T17:17:27.552Z,38.67
2019-02-14T17:19:16.182Z,42.17
2019-02-14T17:21:50.061Z,45.60
2019-02-14T17:24:27.111Z,46.70
2019-02-14T17:31:17.492Z,43.57
2019-02-14T17:34:49.977Z,48.00
2019-02-14T17:41:17.087Z,41.27
2019-02-14T17:47:10.239Z,44.77
2019-02-14T17:49:34.879Z,43.40
2019-02-14T17:52:16.297Z,43.23
2019-02-14T17:59:03.456Z,42.17
2019-02-14T18:01:31.901Z,44.80
2019-02-14T18:04:06.284Z,44.83
2019-02-14T18:06:40.630Z,49.67
2019-02-14T18:09:16.063Z,48.07
2019-02-14T18:11:58.492Z,56.50
2019-02-14T18:14:30.843Z,52.90
2019-02-14T18:17:06.722Z,56.77
2019-02-14T18:19:49.403Z,54.93
2019-02-14T18:22:22.568Z,53.10
2019-02-14T18:25:01.247Z,55.03
2019-02-14T18:27:33.425Z,57.83
2019-02-14T18:34:23.373Z,60.37
2019-02-14T18:37:15.174Z,57.97
2019-02-14T18:39:51.022Z,56.33
2019-02-14T18:42:44.201Z,56.57
2019-02-14T18:46:41.355Z,62.77
2019-02-14T18:49:32.958Z,62.20
2019-02-14T19:52:33.020Z,73.77
2019-02-14T19:55:14.170Z,71.10
2019-02-14T19:58:01.033Z,67.83
2019-02-14T20:00:40.951Z,72.17
2019-02-14T20:03:31.924Z,64.37
2019-02-14T20:06:12.848Z,68.50
2019-02-14T20:08:55.981Z,66.97
2019-02-14T20:11:35.901Z,59.67
2019-02-14T20:14:07.258Z,74.73
2019-02-14T21:22:59.317Z,69.57
2019-02-14T21:25:40.166Z,74.97
2019-02-14T21:28:21.976Z,65.60
2019-02-14T21:31:03.277Z,72.83
2019-02-14T21:33:42.882Z,70.37
2019-02-14T21:36:31.823Z,70.50
2019-02-14T21:39:13.286Z,69.30
2019-02-14T21:42:17.569Z,67.67
2019-02-14T21:50:19.665Z,75.53
2019-02-14T21:53:04.923Z,72.03
2019-02-14T21:55:48.886Z,69.83
2019-02-14T22:35:33.106Z,63.63
2019-02-14T22:38:14.104Z,65.80
2019-02-14T22:40:55.595Z,66.60
2019-02-14T22:43:40.280Z,74.20
2019-02-14T23:13:01.850Z,75.67
2019-02-14T23:21:00.569Z,73.63
2019-02-14T23:42:05.066Z,74.93
